sensor_id;sensor_type;location;lat;lon;timestamp;pressure;altitude;pressure_sealevel;temperature;humidity
23164;BME280;31429;42.674;23.350;2023-05-16T00:00:00;94458.22;;;13.83;100.00
23164;BME280;31429;42.674;23.350;2023-05-16T00:01:01;94464.84;;;13.88;100.00
23164;BME280;31429;42.674;23.350;2023-05-16T00:02:02;94461.69;;;13.82;100.00
23164;BME280;31429;42.674;23.350;2023-05-16T00:03:03;94458.09;;;13.85;100.00
23164;BME280;31429;42.674;23.350;2023-05-16T00:04:04;94453.91;;;13.84;100.00
23164;BME280;31429;42.674;23.350;2023-05-16T00:05:05;94457.31;;;13.85;100.00
23164;BME280;31429;42.674;23.350;2023-05-16T00:06:10;94454.72;;;13.85;100.00
23164;BME280;31429;42.674;23.350;2023-05-16T00:07:10;94454.72;;;13.85;100.00
23164;BME280;31429;42.674;23.350;2023-05-16T00:08:11;94448.59;;;13.87;100.00
23164;BME280;31429;42.674;23.350;2023-05-16T00:09:12;94449.66;;;13.83;100.00
23164;BME280;31429;42.674;23.350;2023-05-16T00:10:13;94453.41;;;13.77;100.00
23164;BME280;31429;42.674;23.350;2023-05-16T00:11:15;94448.34;;;13.76;100.00
23164;BME280;31429;42.674;23.350;2023-05-16T00:12:17;94446.97;;;13.70;100.00
23164;BME280;31429;42.674;23.350;2023-05-16T00:13:19;94454.66;;;13.70;100.00
23164;BME280;31429;42.674;23.350;2023-05-16T00:14:25;94443.63;;;13.68;100.00
23164;BME280;31429;42.674;23.350;2023-05-16T00:15:26;94446.19;;;13.68;100.00
23164;BME280;31429;42.674;23.350;2023-05-16T00:16:28;94446.97;;;13.70;100.00
23164;BME280;31429;42.674;23.350;2023-05-16T00:17:29;94438.09;;;13.76;100.00
23164;BME280;31429;42.674;23.350;2023-05-16T00:18:30;94443.84;;;13.79;100.00
23164;BME280;31429;42.674;23.350;2023-05-16T00:19:31;94434.34;;;13.81;100.00
23164;BME280;31429;42.674;23.350;2023-05-16T00:20:32;94435.06;;;13.83;100.00
23164;BME280;31429;42.674;23.350;2023-05-16T00:21:33;94439.22;;;13.86;100.00
23164;BME280;31429;42.674;23.350;2023-05-16T00:22:33;94442.44;;;13.90;100.00
23164;BME280;31429;42.674;23.350;2023-05-16T00:23:34;94442.19;;;13.94;100.00
23164;BME280;31429;42.674;23.350;2023-05-16T00:24:35;94442.28;;;13.93;100.00
23164;BME280;31429;42.674;23.350;2023-05-16T00:25:36;94436.97;;;13.96;100.00
23164;BME280;31429;42.674;23.350;2023-05-16T00:26:36;94443.84;;;13.95;100.00
23164;BME280;31429;42.674;23.350;2023-05-16T00:27:38;94444.84;;;13.93;100.00
23164;BME280;31429;42.674;23.350;2023-05-16T00:28:39;94440.44;;;13.95;100.00
23164;BME280;31429;42.674;23.350;2023-05-16T00:29:40;94444.69;;;13.96;100.00
23164;BME280;31429;42.674;23.350;2023-05-16T00:30:40;94450.72;;;13.95;100.00
23164;BME280;31429;42.674;23.350;2023-05-16T00:31:41;94446.16;;;14.00;100.00
23164;BME280;31429;42.674;23.350;2023-05-16T00:32:41;94441.69;;;14.03;100.00
23164;BME280;31429;42.674;23.350;2023-05-16T00:33:42;94450.13;;;14.05;100.00
23164;BME280;31429;42.674;23.350;2023-05-16T00:34:43;94451.88;;;14.05;100.00
23164;BME280;31429;42.674;23.350;2023-05-16T00:35:43;94443.25;;;14.06;100.00
23164;BME280;31429;42.674;23.350;2023-05-16T00:36:44;94438.94;;;14.06;100.00
23164;BME280;31429;42.674;23.350;2023-05-16T00:37:45;94436.53;;;14.03;100.00
23164;BME280;31429;42.674;23.350;2023-05-16T00:38:45;94437.53;;;14.01;100.00
23164;BME280;31429;42.674;23.350;2023-05-16T00:39:46;94434.88;;;14.02;100.00
23164;BME280;31429;42.674;23.350;2023-05-16T00:40:46;94442.41;;;14.05;100.00
23164;BME280;31429;42.674;23.350;2023-05-16T00:41:47;94442.41;;;14.05;100.00
23164;BME280;31429;42.674;23.350;2023-05-16T00:42:49;94441.78;;;14.02;100.00
23164;BME280;31429;42.674;23.350;2023-05-16T00:43:50;94433.13;;;14.03;100.00
23164;BME280;31429;42.674;23.350;2023-05-16T00:44:51;94433.31;;;14.00;100.00
23164;BME280;31429;42.674;23.350;2023-05-16T00:45:51;94425.53;;;14.01;100.00
23164;BME280;31429;42.674;23.350;2023-05-16T00:46:53;94419.44;;;14.02;100.00
23164;BME280;31429;42.674;23.350;2023-05-16T00:47:53;94421.22;;;14.02;100.00
23164;BME280;31429;42.674;23.350;2023-05-16T00:48:54;94424.59;;;14.02;100.00
23164;BME280;31429;42.674;23.350;2023-05-16T00:49:55;94421.13;;;14.03;100.00
23164;BME280;31429;42.674;23.350;2023-05-16T00:50:56;94418.06;;;13.97;100.00
23164;BME280;31429;42.674;23.350;2023-05-16T00:51:57;94419.72;;;13.98;100.00
23164;BME280;31429;42.674;23.350;2023-05-16T00:52:58;94419.88;;;13.95;100.00
23164;BME280;31429;42.674;23.350;2023-05-16T00:53:59;94408.03;;;13.92;100.00
23164;BME280;31429;42.674;23.350;2023-05-16T00:55:00;94405.38;;;13.94;100.00
23164;BME280;31429;42.674;23.350;2023-05-16T00:56:01;94405.78;;;14.02;100.00
23164;BME280;31429;42.674;23.350;2023-05-16T00:57:02;94415.97;;;14.03;100.00
23164;BME280;31429;42.674;23.350;2023-05-16T00:58:05;94401.78;;;14.12;100.00
23164;BME280;31429;42.674;23.350;2023-05-16T00:59:06;94405.25;;;14.11;100.00
23164;BME280;31429;42.674;23.350;2023-05-16T01:00:08;94406.06;;;14.11;100.00
23164;BME280;31429;42.674;23.350;2023-05-16T01:01:12;94401.03;;;14.10;100.00
23164;BME280;31429;42.674;23.350;2023-05-16T01:02:13;94407.81;;;14.11;100.00
23164;BME280;31429;42.674;23.350;2023-05-16T01:03:14;94399.66;;;14.04;100.00
23164;BME280;31429;42.674;23.350;2023-05-16T01:04:15;94403.06;;;14.05;100.00
23164;BME280;31429;42.674;23.350;2023-05-16T01:05:16;94398.28;;;14.13;100.00
23164;BME280;31429;42.674;23.350;2023-05-16T01:06:17;94397.13;;;14.18;100.00
23164;BME280;31429;42.674;23.350;2023-05-16T01:07:17;94397.47;;;14.12;100.00
23164;BME280;31429;42.674;23.350;2023-05-16T01:08:18;94396.09;;;14.21;100.00
23164;BME280;31429;42.674;23.350;2023-05-16T01:09:19;94405.00;;;14.15;100.00
23164;BME280;31429;42.674;23.350;2023-05-16T01:10:21;94405.66;;;14.19;100.00
23164;BME280;31429;42.674;23.350;2023-05-16T01:11:27;94402.16;;;14.20;100.00
23164;BME280;31429;42.674;23.350;2023-05-16T01:12:36;94405.38;;;14.23;100.00
23164;BME280;31429;42.674;23.350;2023-05-16T01:13:47;94409.34;;;14.29;100.00
23164;BME280;31429;42.674;23.350;2023-05-16T01:15:06;94413.00;;;14.25;100.00
23164;BME280;31429;42.674;23.350;2023-05-16T01:16:12;94406.88;;;14.27;100.00
23164;BME280;31429;42.674;23.350;2023-05-16T01:17:20;94402.72;;;14.25;100.00
23164;BME280;31429;42.674;23.350;2023-05-16T01:18:29;94401.75;;;14.27;100.00
23164;BME280;31429;42.674;23.350;2023-05-16T01:19:46;94397.81;;;14.36;100.00
23164;BME280;31429;42.674;23.350;2023-05-16T01:20:55;94401.38;;;14.33;100.00
23164;BME280;31429;42.674;23.350;2023-05-16T01:22:02;94399.75;;;14.32;100.00
23164;BME280;31429;42.674;23.350;2023-05-16T01:23:18;94389.69;;;14.28;100.00
23164;BME280;31429;42.674;23.350;2023-05-16T01:24:32;94400.72;;;14.30;100.00
23164;BME280;31429;42.674;23.350;2023-05-16T01:25:45;94400.63;;;14.31;100.00
23164;BME280;31429;42.674;23.350;2023-05-16T01:26:53;94397.91;;;14.34;100.00
23164;BME280;31429;42.674;23.350;2023-05-16T01:27:56;94402.41;;;14.45;100.00
23164;BME280;31429;42.674;23.350;2023-05-16T01:28:58;94405.34;;;14.39;100.00
23164;BME280;31429;42.674;23.350;2023-05-16T01:29:59;94396.84;;;14.38;100.00
23164;BME280;31429;42.674;23.350;2023-05-16T01:31:00;94390.44;;;14.30;100.00
23164;BME280;31429;42.674;23.350;2023-05-16T01:32:01;94395.09;;;14.23;100.00
23164;BME280;31429;42.674;23.350;2023-05-16T01:33:02;94388.28;;;14.22;100.00
23164;BME280;31429;42.674;23.350;2023-05-16T01:34:02;94392.53;;;14.23;100.00
23164;BME280;31429;42.674;23.350;2023-05-16T01:35:04;94386.66;;;14.21;100.00
23164;BME280;31429;42.674;23.350;2023-05-16T01:36:12;94389.41;;;14.18;100.00
23164;BME280;31429;42.674;23.350;2023-05-16T01:37:18;94387.47;;;14.22;100.00
23164;BME280;31429;42.674;23.350;2023-05-16T01:38:24;94391.97;;;14.18;100.00
23164;BME280;31429;42.674;23.350;2023-05-16T01:39:31;94386.91;;;14.17;100.00
23164;BME280;31429;42.674;23.350;2023-05-16T01:40:37;94380.13;;;14.16;100.00
23164;BME280;31429;42.674;23.350;2023-05-16T01:41:46;94376.44;;;14.20;100.00
23164;BME280;31429;42.674;23.350;2023-05-16T01:42:51;94373.97;;;14.18;100.00
23164;BME280;31429;42.674;23.350;2023-05-16T01:43:58;94365.69;;;14.13;100.00
23164;BME280;31429;42.674;23.350;2023-05-16T01:45:05;94369.19;;;14.12;100.00
23164;BME280;31429;42.674;23.350;2023-05-16T01:46:10;94363.31;;;14.10;100.00
23164;BME280;31429;42.674;23.350;2023-05-16T01:47:13;94366.63;;;14.12;100.00
23164;BME280;31429;42.674;23.350;2023-05-16T01:48:17;94368.91;;;14.17;100.00
23164;BME280;31429;42.674;23.350;2023-05-16T01:49:34;94369.56;;;14.20;100.00
23164;BME280;31429;42.674;23.350;2023-05-16T01:50:38;94372.88;;;14.22;100.00
23164;BME280;31429;42.674;23.350;2023-05-16T01:51:43;94368.06;;;14.16;100.00
23164;BME280;31429;42.674;23.350;2023-05-16T01:52:49;94363.03;;;14.15;100.00
23164;BME280;31429;42.674;23.350;2023-05-16T01:53:51;94362.88;;;14.18;100.00
23164;BME280;31429;42.674;23.350;2023-05-16T01:54:57;94363.41;;;14.23;100.00
23164;BME280;31429;42.674;23.350;2023-05-16T01:56:00;94374.25;;;14.28;100.00
23164;BME280;31429;42.674;23.350;2023-05-16T01:57:03;94373.44;;;14.27;100.00
23164;BME280;31429;42.674;23.350;2023-05-16T01:58:06;94364.81;;;14.28;100.00
23164;BME280;31429;42.674;23.350;2023-05-16T01:59:08;94361.41;;;14.28;100.00
23164;BME280;31429;42.674;23.350;2023-05-16T02:00:11;94363.25;;;14.26;100.00
23164;BME280;31429;42.674;23.350;2023-05-16T02:01:12;94362.22;;;14.28;100.00
23164;BME280;31429;42.674;23.350;2023-05-16T02:02:13;94370.03;;;14.27;100.00
23164;BME280;31429;42.674;23.350;2023-05-16T02:03:17;94364.63;;;14.31;100.00
23164;BME280;31429;42.674;23.350;2023-05-16T02:04:18;94367.38;;;14.28;100.00
23164;BME280;31429;42.674;23.350;2023-05-16T02:05:18;94364.81;;;14.28;100.00
23164;BME280;31429;42.674;23.350;2023-05-16T02:06:19;94363.91;;;14.29;100.00
23164;BME280;31429;42.674;23.350;2023-05-16T02:07:20;94358.59;;;14.32;100.00
23164;BME280;31429;42.674;23.350;2023-05-16T02:08:20;94356.19;;;14.29;100.00
23164;BME280;31429;42.674;23.350;2023-05-16T02:09:21;94362.97;;;14.30;100.00
23164;BME280;31429;42.674;23.350;2023-05-16T02:10:23;94366.53;;;14.28;100.00
23164;BME280;31429;42.674;23.350;2023-05-16T02:11:23;94359.22;;;14.36;100.00
23164;BME280;31429;42.674;23.350;2023-05-16T02:12:24;94367.16;;;14.47;100.00
23164;BME280;31429;42.674;23.350;2023-05-16T02:13:26;94360.91;;;14.37;100.00
23164;BME280;31429;42.674;23.350;2023-05-16T02:14:27;94365.38;;;14.33;100.00
23164;BME280;31429;42.674;23.350;2023-05-16T02:15:28;94370.53;;;14.33;100.00
23164;BME280;31429;42.674;23.350;2023-05-16T02:16:29;94361.22;;;14.31;100.00
23164;BME280;31429;42.674;23.350;2023-05-16T02:17:30;94367.31;;;14.30;100.00
23164;BME280;31429;42.674;23.350;2023-05-16T02:18:31;94356.22;;;14.44;100.00
23164;BME280;31429;42.674;23.350;2023-05-16T02:19:32;94353.28;;;14.35;100.00
23164;BME280;31429;42.674;23.350;2023-05-16T02:20:32;94352.63;;;14.32;100.00
23164;BME280;31429;42.674;23.350;2023-05-16T02:21:33;94358.03;;;14.27;100.00
23164;BME280;31429;42.674;23.350;2023-05-16T02:22:33;94341.00;;;14.25;100.00
23164;BME280;31429;42.674;23.350;2023-05-16T02:23:35;94356.34;;;14.26;100.00
23164;BME280;31429;42.674;23.350;2023-05-16T02:24:36;94350.31;;;14.27;100.00
23164;BME280;31429;42.674;23.350;2023-05-16T02:25:36;94357.19;;;14.27;100.00
23164;BME280;31429;42.674;23.350;2023-05-16T02:26:37;94346.16;;;14.25;100.00
23164;BME280;31429;42.674;23.350;2023-05-16T02:27:37;94351.13;;;14.28;100.00
23164;BME280;31429;42.674;23.350;2023-05-16T02:28:39;94350.56;;;14.23;100.00
23164;BME280;31429;42.674;23.350;2023-05-16T02:29:59;94348.72;;;14.25;100.00
23164;BME280;31429;42.674;23.350;2023-05-16T02:31:00;94353.97;;;14.23;100.00
23164;BME280;31429;42.674;23.350;2023-05-16T02:32:00;94359.19;;;14.22;100.00
23164;BME280;31429;42.674;23.350;2023-05-16T02:33:01;94355.69;;;14.23;100.00
23164;BME280;31429;42.674;23.350;2023-05-16T02:34:02;94349.56;;;14.25;100.00
23164;BME280;31429;42.674;23.350;2023-05-16T02:35:03;94352.06;;;14.27;100.00
23164;BME280;31429;42.674;23.350;2023-05-16T02:36:04;94358.19;;;14.24;100.00
23164;BME280;31429;42.674;23.350;2023-05-16T02:37:05;94352.31;;;14.22;100.00
23164;BME280;31429;42.674;23.350;2023-05-16T02:38:06;94360.13;;;14.21;100.00
23164;BME280;31429;42.674;23.350;2023-05-16T02:39:06;94366.88;;;14.22;100.00
23164;BME280;31429;42.674;23.350;2023-05-16T02:40:10;94359.28;;;14.20;100.00
23164;BME280;31429;42.674;23.350;2023-05-16T02:41:10;94360.94;;;14.21;100.00
23164;BME280;31429;42.674;23.350;2023-05-16T02:42:11;94360.94;;;14.21;100.00
23164;BME280;31429;42.674;23.350;2023-05-16T02:43:12;94359.09;;;14.23;100.00
23164;BME280;31429;42.674;23.350;2023-05-16T02:44:14;94369.38;;;14.23;100.00
23164;BME280;31429;42.674;23.350;2023-05-16T02:45:15;94367.31;;;14.30;100.00
23164;BME280;31429;42.674;23.350;2023-05-16T02:46:23;94366.53;;;14.28;100.00
23164;BME280;31429;42.674;23.350;2023-05-16T02:47:24;94366.72;;;14.25;100.00
23164;BME280;31429;42.674;23.350;2023-05-16T02:48:24;94370.03;;;14.27;100.00
23164;BME280;31429;42.674;23.350;2023-05-16T02:49:25;94365.75;;;14.27;100.00
23164;BME280;31429;42.674;23.350;2023-05-16T02:50:26;94360.66;;;14.26;100.00
23164;BME280;31429;42.674;23.350;2023-05-16T02:51:27;94355.53;;;14.26;100.00
23164;BME280;31429;42.674;23.350;2023-05-16T02:52:28;94364.91;;;14.27;100.00
23164;BME280;31429;42.674;23.350;2023-05-16T02:53:28;94360.66;;;14.26;100.00
23164;BME280;31429;42.674;23.350;2023-05-16T02:54:29;94353.69;;;14.28;100.00
23164;BME280;31429;42.674;23.350;2023-05-16T02:55:30;94350.91;;;14.32;100.00
23164;BME280;31429;42.674;23.350;2023-05-16T02:56:30;94353.59;;;14.29;100.00
23164;BME280;31429;42.674;23.350;2023-05-16T02:57:31;94350.78;;;14.34;100.00
23164;BME280;31429;42.674;23.350;2023-05-16T02:58:31;94349.41;;;14.43;100.00
23164;BME280;31429;42.674;23.350;2023-05-16T02:59:33;94350.44;;;14.40;100.00
23164;BME280;31429;42.674;23.350;2023-05-16T03:00:34;94347.69;;;14.43;100.00
23164;BME280;31429;42.674;23.350;2023-05-16T03:01:35;94342.19;;;14.49;100.00
23164;BME280;31429;42.674;23.350;2023-05-16T03:02:35;94345.28;;;14.40;100.00
23164;BME280;31429;42.674;23.350;2023-05-16T03:03:36;94347.50;;;14.46;100.00
23164;BME280;31429;42.674;23.350;2023-05-16T03:04:37;94351.75;;;14.47;100.00
23164;BME280;31429;42.674;23.350;2023-05-16T03:05:37;94347.97;;;14.38;100.00
23164;BME280;31429;42.674;23.350;2023-05-16T03:06:38;94344.75;;;14.35;100.00
23164;BME280;31429;42.674;23.350;2023-05-16T03:07:39;94348.16;;;14.35;100.00
23164;BME280;31429;42.674;23.350;2023-05-16T03:08:40;94347.88;;;14.40;100.00
23164;BME280;31429;42.674;23.350;2023-05-16T03:09:40;94350.44;;;14.40;100.00
23164;BME280;31429;42.674;23.350;2023-05-16T03:10:41;94345.78;;;14.31;100.00
23164;BME280;31429;42.674;23.350;2023-05-16T03:11:42;94343.56;;;14.25;100.00
23164;BME280;31429;42.674;23.350;2023-05-16T03:12:42;94344.50;;;14.24;100.00
23164;BME280;31429;42.674;23.350;2023-05-16T03:13:43;94343.50;;;14.26;100.00
23164;BME280;31429;42.674;23.350;2023-05-16T03:14:45;94350.94;;;14.31;100.00
23164;BME280;31429;42.674;23.350;2023-05-16T03:15:45;94344.06;;;14.31;100.00
23164;BME280;31429;42.674;23.350;2023-05-16T03:16:46;94352.63;;;14.32;100.00
23164;BME280;31429;42.674;23.350;2023-05-16T03:17:47;94350.97;;;14.45;100.00
23164;BME280;31429;42.674;23.350;2023-05-16T03:18:48;94345.47;;;14.51;100.00
23164;BME280;31429;42.674;23.350;2023-05-16T03:19:49;94350.63;;;14.51;100.00
23164;BME280;31429;42.674;23.350;2023-05-16T03:20:50;94346.31;;;14.52;100.00
23164;BME280;31429;42.674;23.350;2023-05-16T03:21:54;94348.16;;;14.64;100.00
23164;BME280;31429;42.674;23.350;2023-05-16T03:22:54;94346.50;;;14.63;100.00
23164;BME280;31429;42.674;23.350;2023-05-16T03:23:55;94348.16;;;14.64;100.00
23164;BME280;31429;42.674;23.350;2023-05-16T03:24:56;94338.41;;;14.69;100.00
23164;BME280;31429;42.674;23.350;2023-05-16T03:25:56;94337.13;;;14.62;100.00
23164;BME280;31429;42.674;23.350;2023-05-16T03:26:57;94347.56;;;14.45;100.00
23164;BME280;31429;42.674;23.350;2023-05-16T03:27:59;94344.38;;;14.41;100.00
23164;BME280;31429;42.674;23.350;2023-05-16T03:29:00;94336.84;;;14.52;100.00
23164;BME280;31429;42.674;23.350;2023-05-16T03:30:03;94339.78;;;14.60;100.00
23164;BME280;31429;42.674;23.350;2023-05-16T03:31:04;94341.72;;;14.57;100.00
23164;BME280;31429;42.674;23.350;2023-05-16T03:32:04;94341.00;;;14.55;100.00
23164;BME280;31429;42.674;23.350;2023-05-16T03:33:05;94338.13;;;14.59;100.00
23164;BME280;31429;42.674;23.350;2023-05-16T03:34:06;94332.34;;;14.70;100.00
23164;BME280;31429;42.674;23.350;2023-05-16T03:35:07;94340.09;;;14.70;100.00
23164;BME280;31429;42.674;23.350;2023-05-16T03:36:09;94339.13;;;14.71;100.00
23164;BME280;31429;42.674;23.350;2023-05-16T03:37:09;94331.50;;;14.83;100.00
23164;BME280;31429;42.674;23.350;2023-05-16T03:38:11;94343.25;;;14.87;100.00
23164;BME280;31429;42.674;23.350;2023-05-16T03:39:11;94345.28;;;14.82;100.00
23164;BME280;31429;42.674;23.350;2023-05-16T03:40:12;94337.09;;;14.76;100.00
23164;BME280;31429;42.674;23.350;2023-05-16T03:41:13;94337.09;;;14.76;100.00
23164;BME280;31429;42.674;23.350;2023-05-16T03:42:13;94340.06;;;14.84;100.00
23164;BME280;31429;42.674;23.350;2023-05-16T03:43:14;94336.47;;;15.01;100.00
23164;BME280;31429;42.674;23.350;2023-05-16T03:44:15;94335.94;;;14.95;100.00
23164;BME280;31429;42.674;23.350;2023-05-16T03:45:17;94333.44;;;14.94;100.00
23164;BME280;31429;42.674;23.350;2023-05-16T03:46:17;94340.16;;;14.82;100.00
23164;BME280;31429;42.674;23.350;2023-05-16T03:47:18;94337.22;;;14.88;100.00
23164;BME280;31429;42.674;23.350;2023-05-16T03:48:19;94347.88;;;14.82;100.00
23164;BME280;31429;42.674;23.350;2023-05-16T03:49:24;94354.94;;;14.79;100.00
23164;BME280;31429;42.674;23.350;2023-05-16T03:50:26;94338.50;;;14.95;100.00
23164;BME280;31429;42.674;23.350;2023-05-16T03:51:26;94342.88;;;14.93;100.00
23164;BME280;31429;42.674;23.350;2023-05-16T03:52:35;94351.91;;;14.86;100.00
23164;BME280;31429;42.674;23.350;2023-05-16T03:53:39;94355.41;;;14.71;100.00
23164;BME280;31429;42.674;23.350;2023-05-16T03:54:39;94342.19;;;14.77;100.00
23164;BME280;31429;42.674;23.350;2023-05-16T03:55:40;94353.38;;;14.76;100.00
23164;BME280;31429;42.674;23.350;2023-05-16T03:56:41;94356.72;;;14.78;100.00
23164;BME280;31429;42.674;23.350;2023-05-16T03:57:42;94351.94;;;14.72;100.00
23164;BME280;31429;42.674;23.350;2023-05-16T03:58:42;94349.72;;;14.80;100.00
23164;BME280;31429;42.674;23.350;2023-05-16T03:59:43;94349.59;;;14.82;100.00
23164;BME280;31429;42.674;23.350;2023-05-16T04:00:45;94345.13;;;14.71;100.00
23164;BME280;31429;42.674;23.350;2023-05-16T04:01:46;94345.84;;;14.73;100.00
23164;BME280;31429;42.674;23.350;2023-05-16T04:02:47;94349.06;;;14.77;100.00
23164;BME280;31429;42.674;23.350;2023-05-16T04:03:47;94346.78;;;14.72;100.00
23164;BME280;31429;42.674;23.350;2023-05-16T04:04:48;94345.22;;;14.70;100.00
23164;BME280;31429;42.674;23.350;2023-05-16T04:05:49;94341.28;;;14.78;100.00
23164;BME280;31429;42.674;23.350;2023-05-16T04:06:49;94344.84;;;14.62;100.00
23164;BME280;31429;42.674;23.350;2023-05-16T04:07:50;94345.47;;;14.65;100.00
23164;BME280;31429;42.674;23.350;2023-05-16T04:08:51;94340.63;;;14.61;100.00
23164;BME280;31429;42.674;23.350;2023-05-16T04:09:52;94348.22;;;14.62;100.00
23164;BME280;31429;42.674;23.350;2023-05-16T04:10:53;94349.72;;;14.66;100.00
23164;BME280;31429;42.674;23.350;2023-05-16T04:11:53;94345.66;;;14.62;100.00
23164;BME280;31429;42.674;23.350;2023-05-16T04:12:58;94344.75;;;14.63;100.00
23164;BME280;31429;42.674;23.350;2023-05-16T04:13:59;94351.66;;;14.63;100.00
23164;BME280;31429;42.674;23.350;2023-05-16T04:15:01;94351.94;;;14.58;100.00
23164;BME280;31429;42.674;23.350;2023-05-16T04:16:03;94356.13;;;14.59;100.00
23164;BME280;31429;42.674;23.350;2023-05-16T04:17:04;94354.13;;;14.64;100.00
23164;BME280;31429;42.674;23.350;2023-05-16T04:18:05;94356.97;;;14.60;100.00
23164;BME280;31429;42.674;23.350;2023-05-16T04:19:05;94351.16;;;14.56;100.00
23164;BME280;31429;42.674;23.350;2023-05-16T04:20:06;94359.72;;;14.57;100.00
23164;BME280;31429;42.674;23.350;2023-05-16T04:21:07;94366.59;;;14.56;100.00
23164;BME280;31429;42.674;23.350;2023-05-16T04:22:10;94358.09;;;14.56;100.00
23164;BME280;31429;42.674;23.350;2023-05-16T04:23:10;94359.06;;;14.53;100.00
23164;BME280;31429;42.674;23.350;2023-05-16T04:24:11;94353.13;;;14.53;100.00
23164;BME280;31429;42.674;23.350;2023-05-16T04:25:12;94359.28;;;14.50;100.00
23164;BME280;31429;42.674;23.350;2023-05-16T04:26:13;94354.69;;;14.55;100.00
23164;BME280;31429;42.674;23.350;2023-05-16T04:27:14;94353.75;;;14.56;100.00
23164;BME280;31429;42.674;23.350;2023-05-16T04:28:14;94351.28;;;14.55;100.00
23164;BME280;31429;42.674;23.350;2023-05-16T04:29:15;94346.78;;;14.44;100.00
23164;BME280;31429;42.674;23.350;2023-05-16T04:30:16;94350.72;;;14.50;100.00
23164;BME280;31429;42.674;23.350;2023-05-16T04:31:18;94350.16;;;14.59;100.00
23164;BME280;31429;42.674;23.350;2023-05-16T04:32:19;94349.53;;;14.55;100.00
23164;BME280;31429;42.674;23.350;2023-05-16T04:33:20;94350.38;;;14.56;100.00
23164;BME280;31429;42.674;23.350;2023-05-16T04:34:20;94347.03;;;14.54;100.00
23164;BME280;31429;42.674;23.350;2023-05-16T04:35:22;94349.00;;;14.50;100.00
23164;BME280;31429;42.674;23.350;2023-05-16T04:36:23;94341.06;;;14.53;100.00
23164;BME280;31429;42.674;23.350;2023-05-16T04:37:23;94342.91;;;14.51;100.00
23164;BME280;31429;42.674;23.350;2023-05-16T04:38:24;94343.84;;;14.64;100.00
23164;BME280;31429;42.674;23.350;2023-05-16T04:39:25;94344.94;;;14.74;100.00
23164;BME280;31429;42.674;23.350;2023-05-16T04:40:25;94342.25;;;14.76;100.00
23164;BME280;31429;42.674;23.350;2023-05-16T04:41:27;94337.41;;;14.71;100.00
23164;BME280;31429;42.674;23.350;2023-05-16T04:42:27;94336.94;;;14.65;100.00
23164;BME280;31429;42.674;23.350;2023-05-16T04:43:46;94338.88;;;14.61;100.00
23164;BME280;31429;42.674;23.350;2023-05-16T04:44:47;94341.00;;;14.69;100.00
23164;BME280;31429;42.674;23.350;2023-05-16T04:45:47;94333.44;;;14.66;100.00
23164;BME280;31429;42.674;23.350;2023-05-16T04:46:49;94336.84;;;14.66;100.00
23164;BME280;31429;42.674;23.350;2023-05-16T04:47:50;94342.25;;;14.62;100.00
23164;BME280;31429;42.674;23.350;2023-05-16T04:48:51;94336.03;;;14.66;100.00
23164;BME280;31429;42.674;23.350;2023-05-16T04:49:52;94341.28;;;14.64;100.00
23164;BME280;31429;42.674;23.350;2023-05-16T04:50:52;94349.06;;;14.63;100.00
23164;BME280;31429;42.674;23.350;2023-05-16T04:51:53;94345.13;;;14.71;100.00
23164;BME280;31429;42.674;23.350;2023-05-16T04:52:54;94341.81;;;14.69;100.00
23164;BME280;31429;42.674;23.350;2023-05-16T04:53:55;94345.47;;;14.65;100.00
23164;BME280;31429;42.674;23.350;2023-05-16T04:54:55;94345.22;;;14.70;100.00
23164;BME280;31429;42.674;23.350;2023-05-16T04:55:58;94343.44;;;14.70;100.00
23164;BME280;31429;42.674;23.350;2023-05-16T04:56:59;94343.63;;;14.67;100.00
23164;BME280;31429;42.674;23.350;2023-05-16T04:58:01;94333.91;;;14.72;100.00
23164;BME280;31429;42.674;23.350;2023-05-16T04:59:01;94334.66;;;14.74;100.00
23164;BME280;31429;42.674;23.350;2023-05-16T05:00:05;94343.63;;;14.81;100.00
23164;BME280;31429;42.674;23.350;2023-05-16T05:01:11;94336.66;;;14.83;100.00
23164;BME280;31429;42.674;23.350;2023-05-16T05:02:13;94338.22;;;14.86;100.00
23164;BME280;31429;42.674;23.350;2023-05-16T05:03:13;94335.63;;;15.00;100.00
23164;BME280;31429;42.674;23.350;2023-05-16T05:04:14;94337.28;;;15.01;100.00
23164;BME280;31429;42.674;23.350;2023-05-16T05:05:17;94334.25;;;14.94;100.00
23164;BME280;31429;42.674;23.350;2023-05-16T05:06:17;94331.94;;;14.90;100.00
23164;BME280;31429;42.674;23.350;2023-05-16T05:07:18;94339.31;;;14.96;100.00
23164;BME280;31429;42.674;23.350;2023-05-16T05:08:19;94332.59;;;14.93;100.00
23164;BME280;31429;42.674;23.350;2023-05-16T05:09:20;94334.53;;;14.90;100.00
23164;BME280;31429;42.674;23.350;2023-05-16T05:10:21;94339.50;;;14.79;100.00
23164;BME280;31429;42.674;23.350;2023-05-16T05:11:21;94342.47;;;14.87;100.00
23164;BME280;31429;42.674;23.350;2023-05-16T05:12:22;94343.66;;;14.95;100.00
23164;BME280;31429;42.674;23.350;2023-05-16T05:13:23;94341.16;;;14.94;100.00
23164;BME280;31429;42.674;23.350;2023-05-16T05:14:24;94350.78;;;14.90;100.00
23164;BME280;31429;42.674;23.350;2023-05-16T05:15:24;94348.59;;;14.84;100.00
23164;BME280;31429;42.674;23.350;2023-05-16T05:16:25;94353.56;;;14.87;100.00
23164;BME280;31429;42.674;23.350;2023-05-16T05:17:27;94352.19;;;14.82;100.00
23164;BME280;31429;42.674;23.350;2023-05-16T05:18:29;94346.41;;;14.78;100.00
23164;BME280;31429;42.674;23.350;2023-05-16T05:19:29;94347.22;;;14.79;100.00